sensor_id;sensor_type;location;lat;lon;timestamp;pressure;altitude;pressure_sealevel;temperature;humidity
35489;BME280;21602;55.670;37.578;2023-04-24T00:00:21;99189.94;;;15.16;38.09
35489;BME280;21602;55.670;37.578;2023-04-24T00:02:47;99194.22;;;15.17;38.27
35489;BME280;21602;55.670;37.578;2023-04-24T00:05:14;99193.16;;;15.18;38.02
35489;BME280;21602;55.670;37.578;2023-04-24T00:07:41;99194.50;;;15.15;37.85
35489;BME280;21602;55.670;37.578;2023-04-24T00:10:08;99191.81;;;15.10;37.84
35489;BME280;21602;55.670;37.578;2023-04-24T00:12:34;99192.06;;;15.08;37.75
35489;BME280;21602;55.670;37.578;2023-04-24T00:15:00;99193.41;;;15.06;37.92
35489;BME280;21602;55.670;37.578;2023-04-24T00:17:26;99193.41;;;15.01;37.95
35489;BME280;21602;55.670;37.578;2023-04-24T00:19:52;99195.53;;;15.04;38.04
35489;BME280;21602;55.670;37.578;2023-04-24T00:22:28;99185.34;;;15.06;37.82
35489;BME280;21602;55.670;37.578;2023-04-24T00:24:54;99193.94;;;15.03;38.06
35489;BME280;21602;55.670;37.578;2023-04-24T00:27:20;99186.38;;;15.00;37.89
35489;BME280;21602;55.670;37.578;2023-04-24T00:29:47;99186.13;;;14.96;38.10
35489;BME280;21602;55.670;37.578;2023-04-24T00:32:13;99185.06;;;14.92;37.93
35489;BME280;21602;55.670;37.578;2023-04-24T00:34:40;99185.03;;;14.87;37.95
35489;BME280;21602;55.670;37.578;2023-04-24T00:37:06;99192.00;;;14.83;37.96
35489;BME280;21602;55.670;37.578;2023-04-24T00:39:32;99192.00;;;14.83;38.04
35489;BME280;21602;55.670;37.578;2023-04-24T00:41:58;99194.97;;;14.81;38.24
35489;BME280;21602;55.670;37.578;2023-04-24T00:44:24;99190.41;;;14.82;38.27
35489;BME280;21602;55.670;37.578;2023-04-24T00:46:50;99196.81;;;14.81;38.21
35489;BME280;21602;55.670;37.578;2023-04-24T00:49:21;99187.97;;;14.80;38.56
35489;BME280;21602;55.670;37.578;2023-04-24T00:51:47;99190.41;;;14.82;38.93
35489;BME280;21602;55.670;37.578;2023-04-24T00:54:15;99191.22;;;14.82;38.76
35489;BME280;21602;55.670;37.578;2023-04-24T00:56:42;99186.94;;;14.87;39.27
35489;BME280;21602;55.670;37.578;2023-04-24T00:59:10;99187.44;;;14.83;38.55
35489;BME280;21602;55.670;37.578;2023-04-24T01:01:36;99191.72;;;14.79;38.97
35489;BME280;21602;55.670;37.578;2023-04-24T01:04:02;99190.94;;;14.84;39.07
35489;BME280;21602;55.670;37.578;2023-04-24T01:06:29;99182.06;;;14.83;39.19
35489;BME280;21602;55.670;37.578;2023-04-24T01:08:58;99183.94;;;14.83;39.67
35489;BME280;21602;55.670;37.578;2023-04-24T01:11:25;99182.88;;;14.84;39.60
35489;BME280;21602;55.670;37.578;2023-04-24T01:13:51;99185.28;;;14.80;39.19
35489;BME280;21602;55.670;37.578;2023-04-24T01:16:17;99196.81;;;14.76;38.95
35489;BME280;21602;55.670;37.578;2023-04-24T01:18:46;99190.91;;;14.69;38.66
35489;BME280;21602;55.670;37.578;2023-04-24T01:21:15;99188.44;;;14.62;39.02
35489;BME280;21602;55.670;37.578;2023-04-24T01:23:44;99184.69;;;14.58;39.16
35489;BME280;21602;55.670;37.578;2023-04-24T01:26:11;99184.69;;;14.58;39.03
35489;BME280;21602;55.670;37.578;2023-04-24T01:28:37;99180.94;;;14.59;38.96
35489;BME280;21602;55.670;37.578;2023-04-24T01:31:05;99178.25;;;14.59;38.92
35489;BME280;21602;55.670;37.578;2023-04-24T01:33:32;99174.19;;;14.56;39.31
35489;BME280;21602;55.670;37.578;2023-04-24T01:35:58;99171.78;;;14.60;39.05
35489;BME280;21602;55.670;37.578;2023-04-24T01:38:24;99176.88;;;14.62;38.93
35489;BME280;21602;55.670;37.578;2023-04-24T01:40:52;99177.44;;;14.64;39.13
35489;BME280;21602;55.670;37.578;2023-04-24T01:43:18;99183.91;;;14.63;38.90
35489;BME280;21602;55.670;37.578;2023-04-24T01:45:45;99176.34;;;14.59;38.52
35489;BME280;21602;55.670;37.578;2023-04-24T01:48:12;99171.50;;;14.56;38.83
35489;BME280;21602;55.670;37.578;2023-04-24T01:50:38;99170.69;;;14.56;39.05
35489;BME280;21602;55.670;37.578;2023-04-24T01:53:04;99170.19;;;14.59;38.77
35489;BME280;21602;55.670;37.578;2023-04-24T01:55:31;99164.25;;;14.62;39.05
35489;BME280;21602;55.670;37.578;2023-04-24T01:57:58;99172.31;;;14.62;38.90
35489;BME280;21602;55.670;37.578;2023-04-24T02:00:25;99170.19;;;14.64;38.54
35489;BME280;21602;55.670;37.578;2023-04-24T02:02:53;99172.59;;;14.60;38.47
35489;BME280;21602;55.670;37.578;2023-04-24T02:05:19;99166.94;;;14.57;38.57
35489;BME280;21602;55.670;37.578;2023-04-24T02:07:45;99170.69;;;14.56;38.88
35489;BME280;21602;55.670;37.578;2023-04-24T02:10:11;99172.31;;;14.57;39.21
35489;BME280;21602;55.670;37.578;2023-04-24T02:12:43;99173.94;;;14.58;39.04
35489;BME280;21602;55.670;37.578;2023-04-24T02:15:09;99173.66;;;14.54;38.97
35489;BME280;21602;55.670;37.578;2023-04-24T02:17:38;99172.28;;;14.52;39.28
35489;BME280;21602;55.670;37.578;2023-04-24T02:20:05;99177.13;;;14.50;39.25
35489;BME280;21602;55.670;37.578;2023-04-24T02:22:32;99173.88;;;14.48;38.85
35489;BME280;21602;55.670;37.578;2023-04-24T02:25:02;99179.78;;;14.45;38.78
35489;BME280;21602;55.670;37.578;2023-04-24T02:27:32;99178.16;;;14.44;39.12
35489;BME280;21602;55.670;37.578;2023-04-24T02:29:58;99178.16;;;14.44;38.76
35489;BME280;21602;55.670;37.578;2023-04-24T02:32:25;99178.69;;;14.46;38.73
35489;BME280;21602;55.670;37.578;2023-04-24T02:34:51;99183.53;;;14.44;38.98
35489;BME280;21602;55.670;37.578;2023-04-24T02:37:17;99185.16;;;14.45;38.84
35489;BME280;21602;55.670;37.578;2023-04-24T02:39:43;99181.38;;;14.46;38.77
35489;BME280;21602;55.670;37.578;2023-04-24T02:42:09;99186.75;;;14.46;38.86
35489;BME280;21602;55.670;37.578;2023-04-24T02:44:35;99191.59;;;14.44;39.00
35489;BME280;21602;55.670;37.578;2023-04-24T02:47:01;99188.09;;;14.43;38.78
35489;BME280;21602;55.670;37.578;2023-04-24T02:49:27;99192.69;;;14.48;38.66
35489;BME280;21602;55.670;37.578;2023-04-24T02:51:54;99190.84;;;14.48;38.57
35489;BME280;21602;55.670;37.578;2023-04-24T02:54:20;99196.47;;;14.52;38.59
35489;BME280;21602;55.670;37.578;2023-04-24T02:56:46;99205.09;;;14.54;38.82
35489;BME280;21602;55.670;37.578;2023-04-24T02:59:12;99192.47;;;14.59;38.90
35489;BME280;21602;55.670;37.578;2023-04-24T03:01:38;99199.47;;;14.66;39.05
35489;BME280;21602;55.670;37.578;2023-04-24T03:04:04;99199.50;;;14.71;38.80
35489;BME280;21602;55.670;37.578;2023-04-24T03:06:30;99197.09;;;14.74;38.74
35489;BME280;21602;55.670;37.578;2023-04-24T03:08:59;99196.56;;;14.77;39.09
35489;BME280;21602;55.670;37.578;2023-04-24T03:11:25;99200.88;;;14.83;39.02
35489;BME280;21602;55.670;37.578;2023-04-24T03:13:52;99208.44;;;14.92;39.54
35489;BME280;21602;55.670;37.578;2023-04-24T03:16:19;99195.00;;;14.97;38.95
35489;BME280;21602;55.670;37.578;2023-04-24T03:18:46;99200.38;;;15.02;39.35
35489;BME280;21602;55.670;37.578;2023-04-24T03:21:13;99200.41;;;15.07;39.34
35489;BME280;21602;55.670;37.578;2023-04-24T03:23:40;99200.69;;;15.10;39.30
35489;BME280;21602;55.670;37.578;2023-04-24T03:26:08;99202.28;;;15.11;38.96
35489;BME280;21602;55.670;37.578;2023-04-24T03:28:37;99206.31;;;15.09;39.35
35489;BME280;21602;55.670;37.578;2023-04-24T03:31:04;99201.72;;;15.04;38.73
35489;BME280;21602;55.670;37.578;2023-04-24T03:33:34;99201.72;;;14.99;38.70
35489;BME280;21602;55.670;37.578;2023-04-24T03:36:01;99202.78;;;14.98;39.02
35489;BME280;21602;55.670;37.578;2023-04-24T03:38:35;99208.44;;;15.02;38.96
35489;BME280;21602;55.670;37.578;2023-04-24T03:41:21;99205.25;;;15.05;39.03
35489;BME280;21602;55.670;37.578;2023-04-24T03:44:08;99213.31;;;15.10;39.02
35489;BME280;21602;55.670;37.578;2023-04-24T03:46:34;99212.25;;;15.16;39.62
35489;BME280;21602;55.670;37.578;2023-04-24T03:49:01;99209.56;;;15.26;39.41
35489;BME280;21602;55.670;37.578;2023-04-24T03:51:32;99210.38;;;15.37;39.28
35489;BME280;21602;55.670;37.578;2023-04-24T03:54:08;99213.88;;;15.43;38.89
35489;BME280;21602;55.670;37.578;2023-04-24T03:56:37;99220.88;;;15.49;38.70
35489;BME280;21602;55.670;37.578;2023-04-24T03:59:03;99221.97;;;15.53;38.49
35489;BME280;21602;55.670;37.578;2023-04-24T04:01:30;99220.31;;;15.57;38.51
35489;BME280;21602;55.670;37.578;2023-04-24T04:04:06;99225.47;;;15.58;38.95
35489;BME280;21602;55.670;37.578;2023-04-24T04:06:32;99219.03;;;15.65;38.62
35489;BME280;21602;55.670;37.578;2023-04-24T04:09:00;99223.59;;;15.74;38.44
35489;BME280;21602;55.670;37.578;2023-04-24T04:11:26;99225.75;;;15.82;38.68
35489;BME280;21602;55.670;37.578;2023-04-24T04:13:52;99227.91;;;15.91;38.62
35489;BME280;21602;55.670;37.578;2023-04-24T04:16:20;99229.50;;;15.97;38.15
35489;BME280;21602;55.670;37.578;2023-04-24T04:18:48;99223.03;;;16.03;38.30
35489;BME280;21602;55.670;37.578;2023-04-24T04:21:15;99223.81;;;16.08;38.35
35489;BME280;21602;55.670;37.578;2023-04-24T04:23:41;99226.75;;;16.17;38.34
35489;BME280;21602;55.670;37.578;2023-04-24T04:26:15;99232.41;;;16.26;37.94
35489;BME280;21602;55.670;37.578;2023-04-24T04:28:56;99233.72;;;16.38;37.91
35489;BME280;21602;55.670;37.578;2023-04-24T04:31:22;99234.22;;;16.46;37.99
35489;BME280;21602;55.670;37.578;2023-04-24T04:33:49;99232.84;;;16.53;37.73
35489;BME280;21602;55.670;37.578;2023-04-24T04:36:15;99236.59;;;16.62;37.87
35489;BME280;21602;55.670;37.578;2023-04-24T04:38:47;99228.19;;;16.69;37.56
35489;BME280;21602;55.670;37.578;2023-04-24T04:41:37;99234.69;;;16.73;37.10
35489;BME280;21602;55.670;37.578;2023-04-24T04:44:07;99232.47;;;16.80;37.15
35489;BME280;21602;55.670;37.578;2023-04-24T04:46:35;99238.41;;;16.87;36.83
35489;BME280;21602;55.670;37.578;2023-04-24T04:49:25;99237.03;;;16.95;36.81
35489;BME280;21602;55.670;37.578;2023-04-24T04:51:54;99234.00;;;17.02;36.61
35489;BME280;21602;55.670;37.578;2023-04-24T04:54:21;99231.78;;;17.09;36.60
35489;BME280;21602;55.670;37.578;2023-04-24T04:56:50;99239.31;;;17.17;36.45
35489;BME280;21602;55.670;37.578;2023-04-24T04:59:16;99242.53;;;17.19;36.41
35489;BME280;21602;55.670;37.578;2023-04-24T05:01:42;99243.59;;;17.18;36.29
35489;BME280;21602;55.670;37.578;2023-04-24T05:04:10;99238.19;;;17.23;37.35
35489;BME280;21602;55.670;37.578;2023-04-24T05:06:37;99243.28;;;17.30;37.60
35489;BME280;21602;55.670;37.578;2023-04-24T05:09:04;99236.19;;;17.39;37.42
35489;BME280;21602;55.670;37.578;2023-04-24T05:11:50;99237.22;;;17.48;37.24
35489;BME280;21602;55.670;37.578;2023-04-24T05:14:17;99243.28;;;17.64;37.58
35489;BME280;21602;55.670;37.578;2023-04-24T05:16:45;99242.34;;;17.84;37.56
35489;BME280;21602;55.670;37.578;2023-04-24T05:19:12;99253.78;;;18.05;36.15
35489;BME280;21602;55.670;37.578;2023-04-24T05:21:40;99246.41;;;18.10;35.03
35489;BME280;21602;55.670;37.578;2023-04-24T05:24:07;99245.03;;;18.13;35.98
35489;BME280;21602;55.670;37.578;2023-04-24T05:27:03;99238.97;;;18.26;35.43
35489;BME280;21602;55.670;37.578;2023-04-24T05:29:40;99244.25;;;18.36;35.27
35489;BME280;21602;55.670;37.578;2023-04-24T05:32:07;99240.13;;;18.44;35.29
35489;BME280;21602;55.670;37.578;2023-04-24T05:34:35;99242.94;;;18.58;34.56
35489;BME280;21602;55.670;37.578;2023-04-24T05:37:02;99249.09;;;18.63;34.70
35489;BME280;21602;55.670;37.578;2023-04-24T05:39:30;99242.72;;;18.78;34.61
35489;BME280;21602;55.670;37.578;2023-04-24T05:41:56;99242.38;;;18.85;34.37
35489;BME280;21602;55.670;37.578;2023-04-24T05:44:23;99235.50;;;18.92;34.26
35489;BME280;21602;55.670;37.578;2023-04-24T05:46:49;99239.47;;;19.00;33.66
35489;BME280;21602;55.670;37.578;2023-04-24T05:49:16;99240.19;;;19.06;33.38
35489;BME280;21602;55.670;37.578;2023-04-24T05:51:42;99238.94;;;19.17;33.24
35489;BME280;21602;55.670;37.578;2023-04-24T05:54:08;99235.00;;;19.28;33.28
35489;BME280;21602;55.670;37.578;2023-04-24T05:56:34;99235.66;;;19.20;32.71
35489;BME280;21602;55.670;37.578;2023-04-24T05:59:03;99233.03;;;19.15;33.15
35489;BME280;21602;55.670;37.578;2023-04-24T06:01:30;99236.16;;;19.22;33.17
35489;BME280;21602;55.670;37.578;2023-04-24T06:04:05;99234.13;;;19.33;33.18
35489;BME280;21602;55.670;37.578;2023-04-24T06:06:32;99233.16;;;19.42;33.22
35489;BME280;21602;55.670;37.578;2023-04-24T06:08:58;99234.69;;;19.49;32.76
35489;BME280;21602;55.670;37.578;2023-04-24T06:11:26;99239.00;;;19.50;32.84
35489;BME280;21602;55.670;37.578;2023-04-24T06:13:51;99234.47;;;19.45;32.36
35489;BME280;21602;55.670;37.578;2023-04-24T06:16:35;99232.13;;;19.38;32.55
35489;BME280;21602;55.670;37.578;2023-04-24T06:19:09;99230.94;;;19.44;32.61
35489;BME280;21602;55.670;37.578;2023-04-24T06:21:35;99237.81;;;19.56;32.28
35489;BME280;21602;55.670;37.578;2023-04-24T06:24:01;99233.97;;;19.62;32.22
35489;BME280;21602;55.670;37.578;2023-04-24T06:26:27;99236.06;;;19.65;31.89
35489;BME280;21602;55.670;37.578;2023-04-24T06:28:53;99242.31;;;19.65;31.96
35489;BME280;21602;55.670;37.578;2023-04-24T06:31:20;99238.84;;;19.60;31.73
35489;BME280;21602;55.670;37.578;2023-04-24T06:33:46;99239.00;;;19.50;31.54
35489;BME280;21602;55.670;37.578;2023-04-24T06:36:12;99240.69;;;19.45;31.33
35489;BME280;21602;55.670;37.578;2023-04-24T06:38:38;99243.69;;;19.44;31.58
35489;BME280;21602;55.670;37.578;2023-04-24T06:41:04;99242.81;;;19.49;31.57
35489;BME280;21602;55.670;37.578;2023-04-24T06:43:35;99238.63;;;19.56;31.51
35489;BME280;21602;55.670;37.578;2023-04-24T06:46:01;99242.09;;;19.62;31.44
35489;BME280;21602;55.670;37.578;2023-04-24T06:48:29;99238.69;;;19.51;31.25
35489;BME280;21602;55.670;37.578;2023-04-24T06:50:55;99239.00;;;19.50;31.34
35489;BME280;21602;55.670;37.578;2023-04-24T06:53:21;99246.00;;;19.51;31.33
35489;BME280;21602;55.670;37.578;2023-04-24T06:55:47;99240.25;;;19.57;31.39
35489;BME280;21602;55.670;37.578;2023-04-24T06:58:13;99245.50;;;19.67;31.44
35489;BME280;21602;55.670;37.578;2023-04-24T07:00:39;99247.34;;;19.72;31.17
35489;BME280;21602;55.670;37.578;2023-04-24T07:03:06;99251.56;;;19.78;30.99
35489;BME280;21602;55.670;37.578;2023-04-24T07:05:31;99245.78;;;19.85;30.95
35489;BME280;21602;55.670;37.578;2023-04-24T07:07:59;99250.59;;;19.88;30.79
35489;BME280;21602;55.670;37.578;2023-04-24T07:10:25;99256.00;;;19.88;30.96
35489;BME280;21602;55.670;37.578;2023-04-24T07:12:55;99252.00;;;19.85;30.67
35489;BME280;21602;55.670;37.578;2023-04-24T07:15:22;99252.56;;;19.82;30.40
35489;BME280;21602;55.670;37.578;2023-04-24T07:17:49;99259.81;;;19.87;30.53
35489;BME280;21602;55.670;37.578;2023-04-24T07:20:16;99251.19;;;19.85;30.25
35489;BME280;21602;55.670;37.578;2023-04-24T07:22:41;99258.44;;;19.89;30.46
35489;BME280;21602;55.670;37.578;2023-04-24T07:25:08;99254.44;;;20.01;30.55
35489;BME280;21602;55.670;37.578;2023-04-24T07:27:35;99252.56;;;20.15;30.56
35489;BME280;21602;55.670;37.578;2023-04-24T07:30:03;99255.66;;;20.22;30.13
35489;BME280;21602;55.670;37.578;2023-04-24T07:32:32;99262.63;;;20.28;30.42
35489;BME280;21602;55.670;37.578;2023-04-24T07:34:58;99257.91;;;20.34;30.08
35489;BME280;21602;55.670;37.578;2023-04-24T07:37:24;99254.59;;;20.37;30.04
35489;BME280;21602;55.670;37.578;2023-04-24T07:39:50;99255.19;;;20.34;29.59
35489;BME280;21602;55.670;37.578;2023-04-24T07:42:16;99252.88;;;20.27;29.54
35489;BME280;21602;55.670;37.578;2023-04-24T07:44:42;99246.34;;;20.28;30.14
35489;BME280;21602;55.670;37.578;2023-04-24T07:47:08;99245.72;;;20.31;29.63
35489;BME280;21602;55.670;37.578;2023-04-24T07:49:36;99252.88;;;20.13;29.07
35489;BME280;21602;55.670;37.578;2023-04-24T07:52:02;99259.34;;;19.99;29.66
35489;BME280;21602;55.670;37.578;2023-04-24T07:54:29;99251.41;;;20.02;30.17
35489;BME280;21602;55.670;37.578;2023-04-24T07:56:55;99243.63;;;20.14;29.89
35489;BME280;21602;55.670;37.578;2023-04-24T07:59:21;99245.25;;;20.29;29.87
35489;BME280;21602;55.670;37.578;2023-04-24T08:01:47;99247.16;;;20.42;29.88
35489;BME280;21602;55.670;37.578;2023-04-24T08:04:13;99249.72;;;20.53;29.57
35489;BME280;21602;55.670;37.578;2023-04-24T08:06:40;99248.50;;;20.59;29.07
35489;BME280;21602;55.670;37.578;2023-04-24T08:09:06;99247.38;;;20.60;28.88
35489;BME280;21602;55.670;37.578;2023-04-24T08:11:33;99250.88;;;20.46;28.79
35489;BME280;21602;55.670;37.578;2023-04-24T08:13:59;99243.44;;;20.38;28.82
35489;BME280;21602;55.670;37.578;2023-04-24T08:16:25;99240.63;;;20.43;28.94
35489;BME280;21602;55.670;37.578;2023-04-24T08:18:51;99249.72;;;20.53;28.52
35489;BME280;21602;55.670;37.578;2023-04-24T08:21:17;99236.03;;;20.71;28.38
35489;BME280;21602;55.670;37.578;2023-04-24T08:23:45;99230.75;;;21.03;28.41
35489;BME280;21602;55.670;37.578;2023-04-24T08:26:12;99229.91;;;21.16;28.13
35489;BME280;21602;55.670;37.578;2023-04-24T08:28:38;99229.97;;;21.38;28.03
35489;BME280;21602;55.670;37.578;2023-04-24T08:31:04;99233.38;;;21.66;28.71
35489;BME280;21602;55.670;37.578;2023-04-24T08:33:30;99224.34;;;21.80;28.39
35489;BME280;21602;55.670;37.578;2023-04-24T08:36:03;99221.56;;;21.93;28.07
35489;BME280;21602;55.670;37.578;2023-04-24T08:38:30;99226.69;;;21.95;27.62
35489;BME280;21602;55.670;37.578;2023-04-24T08:41:00;99227.16;;;21.97;27.88
35489;BME280;21602;55.670;37.578;2023-04-24T08:43:27;99222.16;;;21.90;27.95
35489;BME280;21602;55.670;37.578;2023-04-24T08:45:55;99223.44;;;21.84;28.04
35489;BME280;21602;55.670;37.578;2023-04-24T08:48:24;99218.72;;;21.76;27.83
35489;BME280;21602;55.670;37.578;2023-04-24T08:50:53;99219.84;;;21.75;28.11
35489;BME280;21602;55.670;37.578;2023-04-24T08:53:20;99214.16;;;21.85;27.75
35489;BME280;21602;55.670;37.578;2023-04-24T08:55:47;99202.53;;;21.93;27.46
35489;BME280;21602;55.670;37.578;2023-04-24T08:58:15;99215.47;;;21.96;27.60
35489;BME280;21602;55.670;37.578;2023-04-24T09:00:41;99210.44;;;21.81;27.70
35489;BME280;21602;55.670;37.578;2023-04-24T09:03:16;99195.22;;;21.49;27.35
35489;BME280;21602;55.670;37.578;2023-04-24T09:05:46;99211.97;;;21.42;27.46
35489;BME280;21602;55.670;37.578;2023-04-24T09:08:13;99207.66;;;21.41;28.49
35489;BME280;21602;55.670;37.578;2023-04-24T09:10:41;99203.88;;;21.51;28.17
35489;BME280;21602;55.670;37.578;2023-04-24T09:13:07;99193.88;;;21.60;28.28
35489;BME280;21602;55.670;37.578;2023-04-24T09:15:35;99195.81;;;21.68;27.87
35489;BME280;21602;55.670;37.578;2023-04-24T09:18:01;99193.47;;;21.76;27.58
35489;BME280;21602;55.670;37.578;2023-04-24T09:20:28;99198.53;;;21.68;27.43
35489;BME280;21602;55.670;37.578;2023-04-24T09:22:55;99192.94;;;21.65;27.60
35489;BME280;21602;55.670;37.578;2023-04-24T09:25:22;99183.53;;;21.71;27.89
35489;BME280;21602;55.670;37.578;2023-04-24T09:27:48;99187.25;;;21.75;27.67
35489;BME280;21602;55.670;37.578;2023-04-24T09:30:21;99191.44;;;21.59;26.91
35489;BME280;21602;55.670;37.578;2023-04-24T09:32:48;99197.88;;;21.27;27.45
35489;BME280;21602;55.670;37.578;2023-04-24T09:35:15;99197.34;;;21.16;27.91
35489;BME280;21602;55.670;37.578;2023-04-24T09:37:43;99193.59;;;21.26;27.51
35489;BME280;21602;55.670;37.578;2023-04-24T09:40:18;99185.53;;;21.34;27.49
35489;BME280;21602;55.670;37.578;2023-04-24T09:42:54;99188.84;;;21.31;27.17
35489;BME280;21602;55.670;37.578;2023-04-24T09:45:21;99181.44;;;21.23;27.46
35489;BME280;21602;55.670;37.578;2023-04-24T09:47:51;99180.19;;;21.29;27.61
35489;BME280;21602;55.670;37.578;2023-04-24T09:50:17;99173.66;;;21.30;27.73
35489;BME280;21602;55.670;37.578;2023-04-24T09:52:56;99167.25;;;21.48;27.59
35489;BME280;21602;55.670;37.578;2023-04-24T09:55:22;99169.72;;;21.59;27.80
35489;BME280;21602;55.670;37.578;2023-04-24T09:57:53;99167.38;;;21.66;27.06
35489;BME280;21602;55.670;37.578;2023-04-24T10:00:23;99161.34;;;21.78;27.43
35489;BME280;21602;55.670;37.578;2023-04-24T10:02:55;99150.22;;;21.88;27.60
35489;BME280;21602;55.670;37.578;2023-04-24T10:05:32;99150.91;;;21.93;27.05
35489;BME280;21602;55.670;37.578;2023-04-24T10:08:03;99154.00;;;22.09;27.31
35489;BME280;21602;55.670;37.578;2023-04-24T10:10:31;99161.28;;;22.31;27.32
35489;BME280;21602;55.670;37.578;2023-04-24T10:12:59;99149.00;;;22.42;27.06
35489;BME280;21602;55.670;37.578;2023-04-24T10:15:26;99150.78;;;22.56;26.97
35489;BME280;21602;55.670;37.578;2023-04-24T10:17:52;99150.97;;;22.68;26.82
35489;BME280;21602;55.670;37.578;2023-04-24T10:20:23;99150.81;;;22.73;26.61
35489;BME280;21602;55.670;37.578;2023-04-24T10:22:51;99154.34;;;22.82;26.51
35489;BME280;21602;55.670;37.578;2023-04-24T10:25:28;99150.69;;;22.95;26.41
35489;BME280;21602;55.670;37.578;2023-04-24T10:27:55;99148.78;;;22.96;26.05
35489;BME280;21602;55.670;37.578;2023-04-24T10:30:32;99142.81;;;22.85;26.40
35489;BME280;21602;55.670;37.578;2023-04-24T10:33:04;99146.78;;;22.53;26.06
35489;BME280;21602;55.670;37.578;2023-04-24T10:35:42;99143.06;;;22.32;26.50
35489;BME280;21602;55.670;37.578;2023-04-24T10:38:17;99144.63;;;22.24;26.28
35489;BME280;21602;55.670;37.578;2023-04-24T10:40:44;99140.59;;;22.21;26.58
35489;BME280;21602;55.670;37.578;2023-04-24T10:43:10;99134.97;;;22.09;26.57
35489;BME280;21602;55.670;37.578;2023-04-24T10:45:37;99142.44;;;21.95;26.69
35489;BME280;21602;55.670;37.578;2023-04-24T10:48:06;99132.41;;;21.73;26.90
35489;BME280;21602;55.670;37.578;2023-04-24T10:50:47;99141.56;;;21.55;27.16
35489;BME280;21602;55.670;37.578;2023-04-24T10:53:21;99143.94;;;21.47;27.03
35489;BME280;21602;55.670;37.578;2023-04-24T10:55:51;99146.97;;;21.46;27.59
35489;BME280;21602;55.670;37.578;2023-04-24T10:58:24;99128.75;;;21.46;27.69
35489;BME280;21602;55.670;37.578;2023-04-24T11:00:58;99129.25;;;21.48;27.90
35489;BME280;21602;55.670;37.578;2023-04-24T11:03:27;99132.94;;;21.53;27.65
35489;BME280;21602;55.670;37.578;2023-04-24T11:06:05;99133.34;;;21.68;27.71
35489;BME280;21602;55.670;37.578;2023-04-24T11:08:37;99121.13;;;21.88;27.25
35489;BME280;21602;55.670;37.578;2023-04-24T11:11:18;99115.94;;;22.09;26.91
35489;BME280;21602;55.670;37.578;2023-04-24T11:19:05;99114.25;;;22.31;26.97
35489;BME280;21602;55.670;37.578;2023-04-24T11:22:16;99099.91;;;22.56;26.37
35489;BME280;21602;55.670;37.578;2023-04-24T11:27:19;99096.88;;;22.66;25.83
35489;BME280;21602;55.670;37.578;2023-04-24T11:29:59;99094.31;;;22.70;26.17
35489;BME280;21602;55.670;37.578;2023-04-24T11:32:30;99096.25;;;22.69;26.18
35489;BME280;21602;55.670;37.578;2023-04-24T11:35:01;99096.06;;;22.66;25.97
35489;BME280;21602;55.670;37.578;2023-04-24T11:37:40;99095.28;;;22.65;25.98
35489;BME280;21602;55.670;37.578;2023-04-24T11:40:11;99093.81;;;22.68;26.26
35489;BME280;21602;55.670;37.578;2023-04-24T11:42:41;99082.63;;;22.61;26.04
35489;BME280;21602;55.670;37.578;2023-04-24T11:45:09;99078.78;;;22.62;25.91
35489;BME280;21602;55.670;37.578;2023-04-24T11:47:36;99079.91;;;22.69;25.66
35489;BME280;21602;55.670;37.578;2023-04-24T11:50:04;99070.59;;;22.53;25.89
35489;BME280;21602;55.670;37.578;2023-04-24T11:52:31;99074.78;;;22.42;25.83
35489;BME280;21602;55.670;37.578;2023-04-24T11:54:57;99071.06;;;22.29;25.76
35489;BME280;21602;55.670;37.578;2023-04-24T11:57:25;99074.13;;;22.28;26.20
35489;BME280;21602;55.670;37.578;2023-04-24T11:59:54;99069.47;;;22.28;26.08
35489;BME280;21602;55.670;37.578;2023-04-24T12:02:24;99064.34;;;22.35;25.94
35489;BME280;21602;55.670;37.578;2023-04-24T12:04:51;99068.53;;;22.33;26.02
35489;BME280;21602;55.670;37.578;2023-04-24T12:07:17;99061.47;;;22.23;25.92
35489;BME280;21602;55.670;37.578;2023-04-24T12:09:45;99061.91;;;22.08;26.14
35489;BME280;21602;55.670;37.578;2023-04-24T12:12:12;99062.97;;;21.98;26.07
35489;BME280;21602;55.670;37.578;2023-04-24T12:14:49;99060.88;;;21.95;26.15
35489;BME280;21602;55.670;37.578;2023-04-24T12:17:17;99061.22;;;21.93;26.14
35489;BME280;21602;55.670;37.578;2023-04-24T12:19:49;99058.19;;;22.04;26.48
35489;BME280;21602;55.670;37.578;2023-04-24T12:22:16;99053.78;;;22.25;26.45
35489;BME280;21602;55.670;37.578;2023-04-24T12:25:02;99050.44;;;22.45;26.65
35489;BME280;21602;55.670;37.578;2023-04-24T12:27:33;99050.16;;;22.56;26.00
35489;BME280;21602;55.670;37.578;2023-04-24T12:30:01;99057.00;;;22.62;25.76
35489;BME280;21602;55.670;37.578;2023-04-24T12:32:30;99052.19;;;22.50;25.20
35489;BME280;21602;55.670;37.578;2023-04-24T12:34:56;99049.94;;;22.17;25.25
35489;BME280;21602;55.670;37.578;2023-04-24T12:37:24;99049.84;;;21.91;25.70
35489;BME280;21602;55.670;37.578;2023-04-24T12:42:30;99045.31;;;21.78;25.66
35489;BME280;21602;55.670;37.578;2023-04-24T12:45:04;99050.50;;;21.97;25.68
35489;BME280;21602;55.670;37.578;2023-04-24T12:47:34;99040.31;;;22.11;26.01
35489;BME280;21602;55.670;37.578;2023-04-24T12:50:01;99040.03;;;22.13;25.93
35489;BME280;21602;55.670;37.578;2023-04-24T12:52:29;99032.16;;;22.11;26.00
35489;BME280;21602;55.670;37.578;2023-04-24T12:55:00;99029.56;;;22.06;26.12
35489;BME280;21602;55.670;37.578;2023-04-24T12:57:29;99035.16;;;22.01;26.23
35489;BME280;21602;55.670;37.578;2023-04-24T12:59:57;99037.81;;;21.84;26.15
35489;BME280;21602;55.670;37.578;2023-04-24T13:02:24;99033.22;;;21.84;26.21
35489;BME280;21602;55.670;37.578;2023-04-24T13:04:50;99029.03;;;21.87;26.47
35489;BME280;21602;55.670;37.578;2023-04-24T13:07:17;99037.38;;;21.90;26.49